sensor_id;sensor_type;location;lat;lon;timestamp;P1;durP1;ratioP1;P2;durP2;ratioP2
3347;SDS011;1687;49.540;8.574;2023-04-08T00:01:09;4.70;;;2.60;;
3347;SDS011;1687;49.540;8.574;2023-04-08T00:03:35;5.07;;;2.50;;
3347;SDS011;1687;49.540;8.574;2023-04-08T00:06:00;5.83;;;2.97;;
3347;SDS011;1687;49.540;8.574;2023-04-08T00:08:27;4.20;;;2.33;;
3347;SDS011;1687;49.540;8.574;2023-04-08T00:10:53;4.80;;;2.20;;
3347;SDS011;1687;49.540;8.574;2023-04-08T00:13:19;4.73;;;2.57;;
3347;SDS011;1687;49.540;8.574;2023-04-08T00:15:45;6.97;;;3.00;;
3347;SDS011;1687;49.540;8.574;2023-04-08T00:18:10;5.27;;;2.80;;
3347;SDS011;1687;49.540;8.574;2023-04-08T00:20:39;4.67;;;2.60;;
3347;SDS011;1687;49.540;8.574;2023-04-08T00:23:05;4.63;;;2.60;;
3347;SDS011;1687;49.540;8.574;2023-04-08T00:25:31;4.17;;;2.43;;
3347;SDS011;1687;49.540;8.574;2023-04-08T00:27:56;9.60;;;2.60;;
3347;SDS011;1687;49.540;8.574;2023-04-08T00:30:22;8.60;;;3.30;;
3347;SDS011;1687;49.540;8.574;2023-04-08T00:32:47;4.40;;;2.83;;
3347;SDS011;1687;49.540;8.574;2023-04-08T00:35:14;6.30;;;2.60;;
3347;SDS011;1687;49.540;8.574;2023-04-08T00:37:39;8.77;;;4.00;;
3347;SDS011;1687;49.540;8.574;2023-04-08T00:40:05;4.93;;;2.60;;
3347;SDS011;1687;49.540;8.574;2023-04-08T00:42:31;4.70;;;2.73;;
3347;SDS011;1687;49.540;8.574;2023-04-08T00:44:57;5.40;;;2.73;;
3347;SDS011;1687;49.540;8.574;2023-04-08T00:47:23;6.57;;;3.77;;
3347;SDS011;1687;49.540;8.574;2023-04-08T00:49:50;6.17;;;2.83;;
3347;SDS011;1687;49.540;8.574;2023-04-08T00:52:16;6.87;;;3.00;;
3347;SDS011;1687;49.540;8.574;2023-04-08T00:54:41;5.30;;;3.10;;
3347;SDS011;1687;49.540;8.574;2023-04-08T00:57:07;6.90;;;3.13;;
3347;SDS011;1687;49.540;8.574;2023-04-08T00:59:33;5.07;;;3.30;;
3347;SDS011;1687;49.540;8.574;2023-04-08T01:02:18;6.57;;;3.43;;
3347;SDS011;1687;49.540;8.574;2023-04-08T01:05:21;5.57;;;3.17;;
3347;SDS011;1687;49.540;8.574;2023-04-08T01:07:58;5.07;;;2.97;;
3347;SDS011;1687;49.540;8.574;2023-04-08T01:10:29;4.33;;;2.20;;
3347;SDS011;1687;49.540;8.574;2023-04-08T01:13:00;6.50;;;3.10;;
3347;SDS011;1687;49.540;8.574;2023-04-08T01:15:30;8.30;;;3.60;;
3347;SDS011;1687;49.540;8.574;2023-04-08T01:17:58;10.10;;;3.80;;
3347;SDS011;1687;49.540;8.574;2023-04-08T01:20:25;6.57;;;3.13;;
3347;SDS011;1687;49.540;8.574;2023-04-08T01:25:51;4.40;;;2.73;;
3347;SDS011;1687;49.540;8.574;2023-04-08T01:28:18;7.40;;;2.70;;
3347;SDS011;1687;49.540;8.574;2023-04-08T01:30:45;5.73;;;3.23;;
3347;SDS011;1687;49.540;8.574;2023-04-08T01:33:14;6.00;;;2.57;;
3347;SDS011;1687;49.540;8.574;2023-04-08T01:35:42;6.77;;;3.30;;
3347;SDS011;1687;49.540;8.574;2023-04-08T01:38:10;6.07;;;2.87;;
3347;SDS011;1687;49.540;8.574;2023-04-08T01:40:40;6.07;;;3.30;;
3347;SDS011;1687;49.540;8.574;2023-04-08T01:43:07;4.97;;;2.97;;
3347;SDS011;1687;49.540;8.574;2023-04-08T01:45:34;8.93;;;3.20;;
3347;SDS011;1687;49.540;8.574;2023-04-08T01:48:00;10.23;;;4.00;;
3347;SDS011;1687;49.540;8.574;2023-04-08T01:50:27;5.90;;;2.90;;
3347;SDS011;1687;49.540;8.574;2023-04-08T01:52:54;5.60;;;3.07;;
3347;SDS011;1687;49.540;8.574;2023-04-08T01:55:22;11.30;;;3.90;;
3347;SDS011;1687;49.540;8.574;2023-04-08T01:57:49;6.60;;;4.20;;
3347;SDS011;1687;49.540;8.574;2023-04-08T02:00:25;5.03;;;2.63;;
3347;SDS011;1687;49.540;8.574;2023-04-08T02:02:54;6.83;;;3.73;;
3347;SDS011;1687;49.540;8.574;2023-04-08T02:05:22;7.87;;;4.67;;
3347;SDS011;1687;49.540;8.574;2023-04-08T02:07:47;7.77;;;3.97;;
3347;SDS011;1687;49.540;8.574;2023-04-08T02:10:14;6.93;;;3.53;;
3347;SDS011;1687;49.540;8.574;2023-04-08T02:12:40;7.50;;;3.87;;
3347;SDS011;1687;49.540;8.574;2023-04-08T02:15:08;4.80;;;3.07;;
3347;SDS011;1687;49.540;8.574;2023-04-08T02:17:45;7.03;;;3.87;;
3347;SDS011;1687;49.540;8.574;2023-04-08T02:20:30;6.47;;;2.90;;
3347;SDS011;1687;49.540;8.574;2023-04-08T02:23:09;5.00;;;3.10;;
3347;SDS011;1687;49.540;8.574;2023-04-08T02:25:42;10.60;;;3.70;;
3347;SDS011;1687;49.540;8.574;2023-04-08T02:28:10;7.53;;;3.50;;
3347;SDS011;1687;49.540;8.574;2023-04-08T02:30:36;9.23;;;3.60;;
3347;SDS011;1687;49.540;8.574;2023-04-08T02:33:07;6.97;;;2.97;;
3347;SDS011;1687;49.540;8.574;2023-04-08T02:35:35;8.27;;;4.27;;
3347;SDS011;1687;49.540;8.574;2023-04-08T02:38:04;10.13;;;4.50;;
3347;SDS011;1687;49.540;8.574;2023-04-08T02:40:30;13.20;;;4.80;;
3347;SDS011;1687;49.540;8.574;2023-04-08T02:42:58;5.63;;;3.53;;
3347;SDS011;1687;49.540;8.574;2023-04-08T02:45:25;6.93;;;3.40;;
3347;SDS011;1687;49.540;8.574;2023-04-08T02:47:56;6.43;;;3.30;;
3347;SDS011;1687;49.540;8.574;2023-04-08T02:50:23;11.47;;;4.00;;
3347;SDS011;1687;49.540;8.574;2023-04-08T02:52:49;6.30;;;3.30;;
3347;SDS011;1687;49.540;8.574;2023-04-08T02:55:14;10.57;;;4.50;;
3347;SDS011;1687;49.540;8.574;2023-04-08T02:57:41;7.83;;;4.23;;
3347;SDS011;1687;49.540;8.574;2023-04-08T03:00:07;6.63;;;3.90;;
3347;SDS011;1687;49.540;8.574;2023-04-08T03:02:33;12.17;;;5.20;;
3347;SDS011;1687;49.540;8.574;2023-04-08T03:04:59;11.17;;;4.53;;
3347;SDS011;1687;49.540;8.574;2023-04-08T03:07:25;9.17;;;4.70;;
3347;SDS011;1687;49.540;8.574;2023-04-08T03:09:52;11.27;;;4.87;;
3347;SDS011;1687;49.540;8.574;2023-04-08T03:12:19;8.83;;;4.33;;
3347;SDS011;1687;49.540;8.574;2023-04-08T03:14:45;14.73;;;5.97;;
3347;SDS011;1687;49.540;8.574;2023-04-08T03:17:11;9.63;;;3.83;;
3347;SDS011;1687;49.540;8.574;2023-04-08T03:19:36;7.13;;;3.67;;
3347;SDS011;1687;49.540;8.574;2023-04-08T03:22:02;9.33;;;4.33;;
3347;SDS011;1687;49.540;8.574;2023-04-08T03:24:28;11.33;;;3.93;;
3347;SDS011;1687;49.540;8.574;2023-04-08T03:26:53;12.67;;;5.47;;
3347;SDS011;1687;49.540;8.574;2023-04-08T03:29:19;11.63;;;5.20;;
3347;SDS011;1687;49.540;8.574;2023-04-08T03:31:45;8.83;;;4.70;;
3347;SDS011;1687;49.540;8.574;2023-04-08T03:34:10;9.33;;;5.10;;
3347;SDS011;1687;49.540;8.574;2023-04-08T03:36:36;8.80;;;4.97;;
3347;SDS011;1687;49.540;8.574;2023-04-08T03:39:02;10.30;;;4.73;;
3347;SDS011;1687;49.540;8.574;2023-04-08T03:41:28;7.50;;;4.20;;
3347;SDS011;1687;49.540;8.574;2023-04-08T03:43:54;8.50;;;4.17;;
3347;SDS011;1687;49.540;8.574;2023-04-08T03:46:20;9.30;;;5.00;;
3347;SDS011;1687;49.540;8.574;2023-04-08T03:48:46;12.83;;;6.13;;
3347;SDS011;1687;49.540;8.574;2023-04-08T03:51:12;11.73;;;5.20;;
3347;SDS011;1687;49.540;8.574;2023-04-08T03:53:38;10.13;;;4.10;;
3347;SDS011;1687;49.540;8.574;2023-04-08T03:56:04;9.63;;;5.00;;
3347;SDS011;1687;49.540;8.574;2023-04-08T03:58:30;10.90;;;5.10;;
3347;SDS011;1687;49.540;8.574;2023-04-08T04:00:56;11.43;;;5.40;;
3347;SDS011;1687;49.540;8.574;2023-04-08T04:03:22;11.50;;;5.93;;
3347;SDS011;1687;49.540;8.574;2023-04-08T04:05:48;15.70;;;5.13;;
3347;SDS011;1687;49.540;8.574;2023-04-08T04:08:14;12.70;;;5.30;;
3347;SDS011;1687;49.540;8.574;2023-04-08T04:10:40;7.77;;;3.43;;
3347;SDS011;1687;49.540;8.574;2023-04-08T04:13:06;12.50;;;5.00;;
3347;SDS011;1687;49.540;8.574;2023-04-08T04:15:31;10.77;;;5.03;;
3347;SDS011;1687;49.540;8.574;2023-04-08T04:17:57;10.33;;;5.03;;
3347;SDS011;1687;49.540;8.574;2023-04-08T04:20:23;10.93;;;4.30;;
3347;SDS011;1687;49.540;8.574;2023-04-08T04:22:50;12.83;;;5.43;;
3347;SDS011;1687;49.540;8.574;2023-04-08T04:25:15;12.87;;;4.60;;
3347;SDS011;1687;49.540;8.574;2023-04-08T04:27:41;11.83;;;5.77;;
3347;SDS011;1687;49.540;8.574;2023-04-08T04:30:07;10.23;;;4.93;;
3347;SDS011;1687;49.540;8.574;2023-04-08T04:32:33;10.00;;;5.17;;
3347;SDS011;1687;49.540;8.574;2023-04-08T04:34:59;12.77;;;5.60;;
3347;SDS011;1687;49.540;8.574;2023-04-08T04:37:25;10.53;;;5.10;;
3347;SDS011;1687;49.540;8.574;2023-04-08T04:39:51;11.70;;;5.07;;
3347;SDS011;1687;49.540;8.574;2023-04-08T04:42:17;11.00;;;5.67;;
3347;SDS011;1687;49.540;8.574;2023-04-08T04:44:42;9.20;;;4.73;;
3347;SDS011;1687;49.540;8.574;2023-04-08T04:47:08;11.50;;;5.77;;
3347;SDS011;1687;49.540;8.574;2023-04-08T04:49:34;10.17;;;5.87;;
3347;SDS011;1687;49.540;8.574;2023-04-08T04:52:00;12.03;;;4.70;;
3347;SDS011;1687;49.540;8.574;2023-04-08T04:54:26;13.80;;;5.97;;
3347;SDS011;1687;49.540;8.574;2023-04-08T04:56:51;13.40;;;6.07;;
3347;SDS011;1687;49.540;8.574;2023-04-08T04:59:17;13.30;;;6.10;;
3347;SDS011;1687;49.540;8.574;2023-04-08T05:01:42;9.60;;;5.47;;
3347;SDS011;1687;49.540;8.574;2023-04-08T05:04:08;13.50;;;5.90;;
3347;SDS011;1687;49.540;8.574;2023-04-08T05:06:34;10.67;;;5.43;;
3347;SDS011;1687;49.540;8.574;2023-04-08T05:09:00;14.97;;;6.97;;
3347;SDS011;1687;49.540;8.574;2023-04-08T05:11:26;11.37;;;6.00;;
3347;SDS011;1687;49.540;8.574;2023-04-08T05:13:52;16.57;;;6.23;;
3347;SDS011;1687;49.540;8.574;2023-04-08T05:16:17;12.90;;;5.20;;
3347;SDS011;1687;49.540;8.574;2023-04-08T05:18:43;11.90;;;5.73;;
3347;SDS011;1687;49.540;8.574;2023-04-08T05:21:09;10.30;;;5.33;;
3347;SDS011;1687;49.540;8.574;2023-04-08T05:23:34;8.33;;;5.17;;
3347;SDS011;1687;49.540;8.574;2023-04-08T05:26:00;9.33;;;5.10;;
3347;SDS011;1687;49.540;8.574;2023-04-08T05:28:26;6.87;;;4.23;;
3347;SDS011;1687;49.540;8.574;2023-04-08T05:30:51;15.63;;;5.60;;
3347;SDS011;1687;49.540;8.574;2023-04-08T05:33:18;9.47;;;4.80;;
3347;SDS011;1687;49.540;8.574;2023-04-08T05:35:44;9.13;;;4.77;;
3347;SDS011;1687;49.540;8.574;2023-04-08T05:38:10;13.63;;;5.93;;
3347;SDS011;1687;49.540;8.574;2023-04-08T05:40:37;11.40;;;4.30;;
3347;SDS011;1687;49.540;8.574;2023-04-08T05:43:02;15.03;;;6.00;;
3347;SDS011;1687;49.540;8.574;2023-04-08T05:45:28;9.03;;;5.10;;
3347;SDS011;1687;49.540;8.574;2023-04-08T05:47:54;12.10;;;6.70;;
3347;SDS011;1687;49.540;8.574;2023-04-08T05:50:20;15.67;;;5.87;;
3347;SDS011;1687;49.540;8.574;2023-04-08T05:52:45;12.70;;;5.80;;
3347;SDS011;1687;49.540;8.574;2023-04-08T05:55:12;9.43;;;4.90;;
3347;SDS011;1687;49.540;8.574;2023-04-08T05:57:38;11.80;;;5.37;;
3347;SDS011;1687;49.540;8.574;2023-04-08T06:00:05;13.13;;;5.80;;
3347;SDS011;1687;49.540;8.574;2023-04-08T06:02:33;13.27;;;5.77;;
3347;SDS011;1687;49.540;8.574;2023-04-08T06:04:59;8.87;;;5.30;;
3347;SDS011;1687;49.540;8.574;2023-04-08T06:07:25;7.73;;;4.40;;
3347;SDS011;1687;49.540;8.574;2023-04-08T06:09:51;13.23;;;6.63;;
3347;SDS011;1687;49.540;8.574;2023-04-08T06:12:17;12.50;;;5.80;;
3347;SDS011;1687;49.540;8.574;2023-04-08T06:14:42;11.77;;;5.03;;
3347;SDS011;1687;49.540;8.574;2023-04-08T06:17:08;11.13;;;6.13;;
3347;SDS011;1687;49.540;8.574;2023-04-08T06:19:34;12.27;;;6.77;;
3347;SDS011;1687;49.540;8.574;2023-04-08T06:21:59;10.43;;;5.27;;
3347;SDS011;1687;49.540;8.574;2023-04-08T06:24:26;15.47;;;6.37;;
3347;SDS011;1687;49.540;8.574;2023-04-08T06:26:53;13.60;;;5.27;;
3347;SDS011;1687;49.540;8.574;2023-04-08T06:29:20;12.00;;;5.90;;
3347;SDS011;1687;49.540;8.574;2023-04-08T06:31:47;11.10;;;6.23;;
3347;SDS011;1687;49.540;8.574;2023-04-08T06:34:14;12.83;;;6.30;;
3347;SDS011;1687;49.540;8.574;2023-04-08T06:36:40;15.27;;;7.07;;
3347;SDS011;1687;49.540;8.574;2023-04-08T06:39:06;14.37;;;7.10;;
3347;SDS011;1687;49.540;8.574;2023-04-08T06:41:31;11.90;;;7.23;;
3347;SDS011;1687;49.540;8.574;2023-04-08T06:43:57;11.50;;;6.07;;
3347;SDS011;1687;49.540;8.574;2023-04-08T06:46:23;14.50;;;6.37;;
3347;SDS011;1687;49.540;8.574;2023-04-08T06:48:49;15.03;;;8.60;;
3347;SDS011;1687;49.540;8.574;2023-04-08T06:51:15;17.17;;;7.50;;
3347;SDS011;1687;49.540;8.574;2023-04-08T06:53:40;14.83;;;7.50;;
3347;SDS011;1687;49.540;8.574;2023-04-08T06:56:06;16.90;;;7.70;;
3347;SDS011;1687;49.540;8.574;2023-04-08T06:58:32;15.80;;;8.53;;
3347;SDS011;1687;49.540;8.574;2023-04-08T07:00:58;12.73;;;6.97;;
3347;SDS011;1687;49.540;8.574;2023-04-08T07:03:24;13.40;;;6.83;;
3347;SDS011;1687;49.540;8.574;2023-04-08T07:05:51;14.90;;;7.83;;
3347;SDS011;1687;49.540;8.574;2023-04-08T07:08:17;13.70;;;7.40;;
3347;SDS011;1687;49.540;8.574;2023-04-08T07:10:43;13.70;;;6.67;;
3347;SDS011;1687;49.540;8.574;2023-04-08T07:13:08;11.83;;;6.93;;
3347;SDS011;1687;49.540;8.574;2023-04-08T07:15:34;16.80;;;7.30;;
3347;SDS011;1687;49.540;8.574;2023-04-08T07:18:01;11.20;;;6.43;;
3347;SDS011;1687;49.540;8.574;2023-04-08T07:20:28;13.30;;;7.63;;
3347;SDS011;1687;49.540;8.574;2023-04-08T07:22:54;17.50;;;7.17;;
3347;SDS011;1687;49.540;8.574;2023-04-08T07:25:20;17.87;;;7.53;;
3347;SDS011;1687;49.540;8.574;2023-04-08T07:27:46;13.23;;;7.17;;
3347;SDS011;1687;49.540;8.574;2023-04-08T07:30:11;23.13;;;9.73;;
3347;SDS011;1687;49.540;8.574;2023-04-08T07:32:37;17.17;;;7.30;;
3347;SDS011;1687;49.540;8.574;2023-04-08T07:35:03;16.30;;;7.83;;
3347;SDS011;1687;49.540;8.574;2023-04-08T07:37:29;15.37;;;8.50;;
3347;SDS011;1687;49.540;8.574;2023-04-08T07:39:55;13.40;;;6.97;;
3347;SDS011;1687;49.540;8.574;2023-04-08T07:42:20;16.47;;;8.30;;
3347;SDS011;1687;49.540;8.574;2023-04-08T07:44:46;18.70;;;7.83;;
3347;SDS011;1687;49.540;8.574;2023-04-08T07:47:12;12.70;;;7.30;;
3347;SDS011;1687;49.540;8.574;2023-04-08T07:49:38;11.07;;;6.73;;
3347;SDS011;1687;49.540;8.574;2023-04-08T07:52:04;13.47;;;6.90;;
3347;SDS011;1687;49.540;8.574;2023-04-08T07:54:30;16.67;;;7.80;;
3347;SDS011;1687;49.540;8.574;2023-04-08T07:56:58;13.10;;;7.47;;
3347;SDS011;1687;49.540;8.574;2023-04-08T07:59:25;12.77;;;6.17;;
3347;SDS011;1687;49.540;8.574;2023-04-08T08:01:51;11.63;;;6.63;;
3347;SDS011;1687;49.540;8.574;2023-04-08T08:04:16;20.43;;;8.77;;
3347;SDS011;1687;49.540;8.574;2023-04-08T08:06:42;15.60;;;7.77;;
3347;SDS011;1687;49.540;8.574;2023-04-08T08:09:08;20.20;;;7.00;;
3347;SDS011;1687;49.540;8.574;2023-04-08T08:11:33;19.77;;;7.83;;
3347;SDS011;1687;49.540;8.574;2023-04-08T08:14:00;18.47;;;7.90;;
3347;SDS011;1687;49.540;8.574;2023-04-08T08:16:29;21.03;;;8.40;;
3347;SDS011;1687;49.540;8.574;2023-04-08T08:18:56;15.93;;;8.37;;
3347;SDS011;1687;49.540;8.574;2023-04-08T08:21:22;15.63;;;8.00;;
3347;SDS011;1687;49.540;8.574;2023-04-08T08:23:48;17.07;;;8.10;;
3347;SDS011;1687;49.540;8.574;2023-04-08T08:26:16;14.57;;;6.80;;
3347;SDS011;1687;49.540;8.574;2023-04-08T08:28:42;14.90;;;6.60;;
3347;SDS011;1687;49.540;8.574;2023-04-08T08:31:07;17.30;;;8.07;;
3347;SDS011;1687;49.540;8.574;2023-04-08T08:33:33;12.93;;;7.20;;
3347;SDS011;1687;49.540;8.574;2023-04-08T08:35:59;11.57;;;7.17;;
3347;SDS011;1687;49.540;8.574;2023-04-08T08:38:25;15.43;;;6.90;;
3347;SDS011;1687;49.540;8.574;2023-04-08T08:40:58;13.63;;;7.70;;
3347;SDS011;1687;49.540;8.574;2023-04-08T08:43:24;13.40;;;7.50;;
3347;SDS011;1687;49.540;8.574;2023-04-08T08:45:51;13.33;;;7.03;;
3347;SDS011;1687;49.540;8.574;2023-04-08T08:48:20;11.00;;;6.93;;
3347;SDS011;1687;49.540;8.574;2023-04-08T08:50:45;13.50;;;7.90;;
3347;SDS011;1687;49.540;8.574;2023-04-08T08:53:11;16.77;;;8.83;;
3347;SDS011;1687;49.540;8.574;2023-04-08T08:55:37;16.77;;;7.50;;
3347;SDS011;1687;49.540;8.574;2023-04-08T08:58:04;15.73;;;8.50;;
3347;SDS011;1687;49.540;8.574;2023-04-08T09:03:14;16.17;;;7.00;;
3347;SDS011;1687;49.540;8.574;2023-04-08T09:05:48;15.50;;;7.40;;
3347;SDS011;1687;49.540;8.574;2023-04-08T09:08:22;16.57;;;6.90;;
3347;SDS011;1687;49.540;8.574;2023-04-08T09:11:16;18.27;;;9.03;;
3347;SDS011;1687;49.540;8.574;2023-04-08T09:13:45;13.73;;;7.73;;
3347;SDS011;1687;49.540;8.574;2023-04-08T09:16:12;14.00;;;8.00;;
3347;SDS011;1687;49.540;8.574;2023-04-08T09:18:42;16.27;;;8.93;;
3347;SDS011;1687;49.540;8.574;2023-04-08T09:21:10;18.80;;;8.93;;
3347;SDS011;1687;49.540;8.574;2023-04-08T09:23:38;10.37;;;6.10;;
3347;SDS011;1687;49.540;8.574;2023-04-08T09:26:12;15.67;;;7.47;;
3347;SDS011;1687;49.540;8.574;2023-04-08T09:28:40;13.20;;;7.17;;
3347;SDS011;1687;49.540;8.574;2023-04-08T09:31:20;17.17;;;8.80;;
3347;SDS011;1687;49.540;8.574;2023-04-08T09:33:48;19.87;;;7.87;;
3347;SDS011;1687;49.540;8.574;2023-04-08T09:36:16;14.00;;;8.40;;
3347;SDS011;1687;49.540;8.574;2023-04-08T09:38:43;15.60;;;8.80;;
3347;SDS011;1687;49.540;8.574;2023-04-08T09:41:12;15.90;;;8.30;;
3347;SDS011;1687;49.540;8.574;2023-04-08T09:43:43;12.27;;;7.40;;
3347;SDS011;1687;49.540;8.574;2023-04-08T09:46:14;21.93;;;10.10;;
3347;SDS011;1687;49.540;8.574;2023-04-08T09:48:45;14.83;;;7.20;;
3347;SDS011;1687;49.540;8.574;2023-04-08T09:51:22;14.00;;;7.47;;
3347;SDS011;1687;49.540;8.574;2023-04-08T09:53:54;15.60;;;8.57;;
3347;SDS011;1687;49.540;8.574;2023-04-08T09:56:26;12.87;;;7.67;;
3347;SDS011;1687;49.540;8.574;2023-04-08T09:59:02;15.37;;;7.37;;
3347;SDS011;1687;49.540;8.574;2023-04-08T10:01:43;13.47;;;7.70;;
3347;SDS011;1687;49.540;8.574;2023-04-08T10:04:15;16.27;;;8.53;;
3347;SDS011;1687;49.540;8.574;2023-04-08T10:06:45;15.90;;;8.77;;
3347;SDS011;1687;49.540;8.574;2023-04-08T10:09:19;16.07;;;9.80;;
3347;SDS011;1687;49.540;8.574;2023-04-08T10:11:46;22.40;;;9.10;;
3347;SDS011;1687;49.540;8.574;2023-04-08T10:14:13;18.17;;;8.00;;
3347;SDS011;1687;49.540;8.574;2023-04-08T10:16:38;18.63;;;9.00;;
3347;SDS011;1687;49.540;8.574;2023-04-08T10:19:34;13.40;;;7.73;;
3347;SDS011;1687;49.540;8.574;2023-04-08T10:22:02;15.20;;;8.43;;
3347;SDS011;1687;49.540;8.574;2023-04-08T10:24:28;15.37;;;8.83;;
3347;SDS011;1687;49.540;8.574;2023-04-08T10:26:54;19.47;;;8.53;;
3347;SDS011;1687;49.540;8.574;2023-04-08T10:31:46;17.03;;;8.37;;
3347;SDS011;1687;49.540;8.574;2023-04-08T10:36:43;20.93;;;9.77;;
3347;SDS011;1687;49.540;8.574;2023-04-08T10:39:10;18.30;;;8.97;;
3347;SDS011;1687;49.540;8.574;2023-04-08T10:41:45;17.30;;;8.40;;
3347;SDS011;1687;49.540;8.574;2023-04-08T10:44:17;12.47;;;6.87;;
3347;SDS011;1687;49.540;8.574;2023-04-08T10:46:44;16.90;;;8.70;;
3347;SDS011;1687;49.540;8.574;2023-04-08T10:49:11;14.87;;;8.33;;
3347;SDS011;1687;49.540;8.574;2023-04-08T10:51:38;14.83;;;8.20;;
3347;SDS011;1687;49.540;8.574;2023-04-08T10:54:05;12.23;;;7.63;;
3347;SDS011;1687;49.540;8.574;2023-04-08T10:56:33;20.23;;;9.53;;
3347;SDS011;1687;49.540;8.574;2023-04-08T10:59:00;20.97;;;8.57;;
3347;SDS011;1687;49.540;8.574;2023-04-08T11:01:27;16.87;;;8.00;;
3347;SDS011;1687;49.540;8.574;2023-04-08T11:04:10;18.17;;;8.90;;
3347;SDS011;1687;49.540;8.574;2023-04-08T11:06:40;21.13;;;9.87;;
3347;SDS011;1687;49.540;8.574;2023-04-08T11:09:08;15.07;;;8.00;;
3347;SDS011;1687;49.540;8.574;2023-04-08T11:11:34;15.17;;;7.80;;
3347;SDS011;1687;49.540;8.574;2023-04-08T11:14:00;16.30;;;8.30;;
3347;SDS011;1687;49.540;8.574;2023-04-08T11:16:26;18.07;;;9.07;;
3347;SDS011;1687;49.540;8.574;2023-04-08T11:18:53;25.03;;;8.67;;
3347;SDS011;1687;49.540;8.574;2023-04-08T11:21:19;13.73;;;8.33;;
3347;SDS011;1687;49.540;8.574;2023-04-08T11:23:48;15.60;;;8.03;;
3347;SDS011;1687;49.540;8.574;2023-04-08T11:26:15;11.80;;;6.70;;
3347;SDS011;1687;49.540;8.574;2023-04-08T11:28:41;13.10;;;7.80;;
3347;SDS011;1687;49.540;8.574;2023-04-08T11:31:07;16.63;;;8.77;;
3347;SDS011;1687;49.540;8.574;2023-04-08T11:33:33;11.50;;;6.70;;
3347;SDS011;1687;49.540;8.574;2023-04-08T11:36:00;14.70;;;7.63;;
3347;SDS011;1687;49.540;8.574;2023-04-08T11:38:30;14.40;;;6.83;;
3347;SDS011;1687;49.540;8.574;2023-04-08T11:40:56;10.97;;;6.10;;
3347;SDS011;1687;49.540;8.574;2023-04-08T11:43:23;7.27;;;5.20;;
3347;SDS011;1687;49.540;8.574;2023-04-08T11:45:50;10.20;;;7.20;;
3347;SDS011;1687;49.540;8.574;2023-04-08T11:48:16;15.83;;;7.20;;
3347;SDS011;1687;49.540;8.574;2023-04-08T11:50:43;21.87;;;6.63;;
3347;SDS011;1687;49.540;8.574;2023-04-08T11:53:18;10.70;;;6.50;;
3347;SDS011;1687;49.540;8.574;2023-04-08T11:55:46;10.87;;;6.60;;
3347;SDS011;1687;49.540;8.574;2023-04-08T11:58:13;13.83;;;6.63;;
3347;SDS011;1687;49.540;8.574;2023-04-08T12:00:39;7.50;;;4.93;;
3347;SDS011;1687;49.540;8.574;2023-04-08T12:03:06;13.13;;;6.40;;
3347;SDS011;1687;49.540;8.574;2023-04-08T12:05:32;9.53;;;5.60;;
3347;SDS011;1687;49.540;8.574;2023-04-08T12:07:58;13.00;;;7.43;;
3347;SDS011;1687;49.540;8.574;2023-04-08T12:10:23;14.27;;;6.70;;
3347;SDS011;1687;49.540;8.574;2023-04-08T12:12:49;12.03;;;5.90;;
3347;SDS011;1687;49.540;8.574;2023-04-08T12:15:15;13.83;;;6.50;;
3347;SDS011;1687;49.540;8.574;2023-04-08T12:17:41;13.00;;;6.83;;
3347;SDS011;1687;49.540;8.574;2023-04-08T12:20:08;12.13;;;6.80;;
3347;SDS011;1687;49.540;8.574;2023-04-08T12:22:35;13.20;;;6.63;;
3347;SDS011;1687;49.540;8.574;2023-04-08T12:25:00;11.97;;;6.40;;
3347;SDS011;1687;49.540;8.574;2023-04-08T12:27:28;12.80;;;6.37;;
3347;SDS011;1687;49.540;8.574;2023-04-08T12:29:54;11.90;;;5.90;;
3347;SDS011;1687;49.540;8.574;2023-04-08T12:32:20;8.83;;;5.53;;
3347;SDS011;1687;49.540;8.574;2023-04-08T12:34:46;10.83;;;6.43;;
3347;SDS011;1687;49.540;8.574;2023-04-08T12:37:12;11.97;;;6.43;;
3347;SDS011;1687;49.540;8.574;2023-04-08T12:39:38;14.20;;;6.20;;
3347;SDS011;1687;49.540;8.574;2023-04-08T12:42:03;13.70;;;7.70;;
3347;SDS011;1687;49.540;8.574;2023-04-08T12:44:29;9.60;;;6.13;;
3347;SDS011;1687;49.540;8.574;2023-04-08T12:46:55;11.50;;;7.00;;
3347;SDS011;1687;49.540;8.574;2023-04-08T12:49:22;10.17;;;5.80;;
3347;SDS011;1687;49.540;8.574;2023-04-08T12:51:49;11.20;;;5.73;;
3347;SDS011;1687;49.540;8.574;2023-04-08T12:54:15;10.00;;;5.60;;
3347;SDS011;1687;49.540;8.574;2023-04-08T12:56:40;10.37;;;5.60;;
3347;SDS011;1687;49.540;8.574;2023-04-08T12:59:07;9.50;;;4.83;;
3347;SDS011;1687;49.540;8.574;2023-04-08T13:01:33;12.20;;;5.50;;
3347;SDS011;1687;49.540;8.574;2023-04-08T13:03:59;14.83;;;6.60;;
3347;SDS011;1687;49.540;8.574;2023-04-08T13:06:25;16.47;;;5.83;;
3347;SDS011;1687;49.540;8.574;2023-04-08T13:08:51;9.90;;;5.20;;
3347;SDS011;1687;49.540;8.574;2023-04-08T13:11:17;10.20;;;5.00;;
3347;SDS011;1687;49.540;8.574;2023-04-08T13:13:43;7.03;;;4.63;;
3347;SDS011;1687;49.540;8.574;2023-04-08T13:16:10;7.77;;;4.90;;
3347;SDS011;1687;49.540;8.574;2023-04-08T13:18:38;8.70;;;5.30;;
3347;SDS011;1687;49.540;8.574;2023-04-08T13:21:05;7.53;;;4.27;;
3347;SDS011;1687;49.540;8.574;2023-04-08T13:23:31;13.97;;;5.10;;
3347;SDS011;1687;49.540;8.574;2023-04-08T13:25:57;11.47;;;5.03;;
3347;SDS011;1687;49.540;8.574;2023-04-08T13:28:23;13.13;;;6.03;;
3347;SDS011;1687;49.540;8.574;2023-04-08T13:30:49;10.70;;;4.90;;
3347;SDS011;1687;49.540;8.574;2023-04-08T13:33:15;7.67;;;4.63;;
3347;SDS011;1687;49.540;8.574;2023-04-08T13:35:41;8.07;;;4.80;;
3347;SDS011;1687;49.540;8.574;2023-04-08T13:38:07;9.83;;;6.10;;
3347;SDS011;1687;49.540;8.574;2023-04-08T13:40:32;7.77;;;4.47;;
3347;SDS011;1687;49.540;8.574;2023-04-08T13:42:58;7.20;;;3.80;;
3347;SDS011;1687;49.540;8.574;2023-04-08T13:45:24;8.97;;;4.03;;
3347;SDS011;1687;49.540;8.574;2023-04-08T13:47:49;8.50;;;4.77;;
3347;SDS011;1687;49.540;8.574;2023-04-08T13:50:15;9.13;;;3.90;;
3347;SDS011;1687;49.540;8.574;2023-04-08T13:52:41;6.03;;;4.13;;
3347;SDS011;1687;49.540;8.574;2023-04-08T13:55:06;10.00;;;4.70;;
3347;SDS011;1687;49.540;8.574;2023-04-08T13:57:32;9.63;;;4.80;;
3347;SDS011;1687;49.540;8.574;2023-04-08T13:59:58;12.10;;;4.90;;
3347;SDS011;1687;49.540;8.574;2023-04-08T14:02:24;10.57;;;5.97;;
3347;SDS011;1687;49.540;8.574;2023-04-08T14:04:50;9.97;;;5.40;;
3347;SDS011;1687;49.540;8.574;2023-04-08T14:07:16;9.50;;;4.57;;
3347;SDS011;1687;49.540;8.574;2023-04-08T14:09:42;8.20;;;4.70;;
3347;SDS011;1687;49.540;8.574;2023-04-08T14:12:08;10.90;;;4.77;;
3347;SDS011;1687;49.540;8.574;2023-04-08T14:14:34;8.87;;;4.40;;
3347;SDS011;1687;49.540;8.574;2023-04-08T14:17:00;11.30;;;5.83;;
3347;SDS011;1687;49.540;8.574;2023-04-08T14:19:26;9.90;;;6.00;;
3347;SDS011;1687;49.540;8.574;2023-04-08T14:21:51;12.17;;;5.50;;
3347;SDS011;1687;49.540;8.574;2023-04-08T14:24:17;11.53;;;6.00;;
3347;SDS011;1687;49.540;8.574;2023-04-08T14:26:43;9.43;;;4.80;;
3347;SDS011;1687;49.540;8.574;2023-04-08T14:29:08;13.33;;;6.00;;
3347;SDS011;1687;49.540;8.574;2023-04-08T14:31:34;9.00;;;5.17;;
3347;SDS011;1687;49.540;8.574;2023-04-08T14:34:00;9.20;;;4.93;;
3347;SDS011;1687;49.540;8.574;2023-04-08T14:36:26;9.43;;;4.90;;
3347;SDS011;1687;49.540;8.574;2023-04-08T14:38:53;9.70;;;4.93;;
3347;SDS011;1687;49.540;8.574;2023-04-08T14:41:19;10.40;;;4.90;;
3347;SDS011;1687;49.540;8.574;2023-04-08T14:43:46;9.30;;;4.83;;
3347;SDS011;1687;49.540;8.574;2023-04-08T14:46:13;9.50;;;5.30;;
3347;SDS011;1687;49.540;8.574;2023-04-08T14:48:38;12.67;;;5.87;;
3347;SDS011;1687;49.540;8.574;2023-04-08T14:51:04;12.23;;;5.00;;
3347;SDS011;1687;49.540;8.574;2023-04-08T14:53:30;8.00;;;4.60;;
3347;SDS011;1687;49.540;8.574;2023-04-08T14:55:57;10.57;;;5.53;;
3347;SDS011;1687;49.540;8.574;2023-04-08T14:58:23;10.07;;;4.17;;
3347;SDS011;1687;49.540;8.574;2023-04-08T15:00:49;9.03;;;5.00;;
3347;SDS011;1687;49.540;8.574;2023-04-08T15:03:15;7.67;;;4.80;;
3347;SDS011;1687;49.540;8.574;2023-04-08T15:05:42;7.60;;;4.10;;
3347;SDS011;1687;49.540;8.574;2023-04-08T15:08:09;9.53;;;4.57;;
3347;SDS011;1687;49.540;8.574;2023-04-08T15:10:35;7.80;;;4.60;;
3347;SDS011;1687;49.540;8.574;2023-04-08T15:13:01;18.33;;;4.70;;
3347;SDS011;1687;49.540;8.574;2023-04-08T15:15:27;11.00;;;4.87;;